Time;durP1;ratioP1;P1;durP2;ratioP2;P2;SDS_P1;SDS_P2;PMS_P1;PMS_P2;Temp;Humidity;BMP_temperature;BMP_pressure;BME280_temperature;BME280_humidity;BME280_pressure;Samples;Min_cycle;Max_cycle;Signal;HPM_P1;HPM_P2
2023/01/11 00:00:32;;;;;;;11.02;3.38;;;4.90;99.90;;;;;;5065779;28;20029;-85
2023/01/11 00:03:00;;;;;;;19.63;3.55;;;5.00;99.90;;;;;;5074281;28;20036;-85
2023/01/11 00:05:29;;;;;;;14.75;3.45;;;5.00;99.90;;;;;;5067136;28;20116;-84
2023/01/11 00:07:55;;;;;;;16.98;3.72;;;5.00;99.90;;;;;;5066239;28;20324;-84
2023/01/11 00:10:21;;;;;;;14.07;3.60;;;5.00;99.90;;;;;;5073872;28;20441;-84
2023/01/11 00:12:47;;;;;;;22.50;3.72;;;5.00;99.90;;;;;;5072095;28;20032;-86
2023/01/11 00:15:13;;;;;;;14.35;3.15;;;5.10;99.90;;;;;;5070853;28;20107;-84
2023/01/11 00:17:40;;;;;;;15.15;3.33;;;5.10;99.90;;;;;;5070454;28;20166;-84
2023/01/11 00:20:07;;;;;;;7.38;3.22;;;5.10;99.90;;;;;;5069794;28;20486;-85
2023/01/11 00:22:32;;;;;;;13.77;3.25;;;5.10;99.90;;;;;;5075407;28;20051;-84
2023/01/11 00:24:58;;;;;;;13.70;3.20;;;5.10;99.90;;;;;;5069643;28;20137;-84
2023/01/11 00:27:24;;;;;;;10.85;3.03;;;5.10;99.90;;;;;;5075335;28;20128;-84
2023/01/11 00:29:49;;;;;;;11.30;3.20;;;5.10;99.90;;;;;;5073531;28;20028;-84
2023/01/11 00:32:15;;;;;;;13.02;2.75;;;5.10;99.90;;;;;;5068041;28;20021;-84
2023/01/11 00:34:40;;;;;;;15.90;3.65;;;5.10;99.90;;;;;;5069065;28;20120;-84
2023/01/11 00:37:06;;;;;;;22.48;3.28;;;5.20;99.90;;;;;;5068469;28;20032;-84
2023/01/11 00:39:31;;;;;;;15.35;3.75;;;5.20;99.90;;;;;;5068712;28;20380;-84
2023/01/11 00:50:09;;;;;;;15.52;4.13;;;5.30;99.90;;;;;;5069804;28;20404;-83
2023/01/11 00:52:35;;;;;;;23.17;4.13;;;5.30;99.90;;;;;;5068130;28;20133;-84
2023/01/11 00:55:01;;;;;;;12.55;2.75;;;5.30;99.90;;;;;;5070442;28;20081;-84
2023/01/11 00:57:26;;;;;;;11.65;3.00;;;5.30;99.90;;;;;;5075840;28;20032;-84
2023/01/11 00:59:52;;;;;;;14.35;3.20;;;5.30;99.90;;;;;;5079618;28;20020;-85
2023/01/11 01:02:17;;;;;;;10.70;3.25;;;5.30;99.90;;;;;;5068890;28;20021;-84
2023/01/11 01:04:43;;;;;;;11.32;3.35;;;5.30;99.90;;;;;;5069933;28;20615;-84
2023/01/11 01:07:10;;;;;;;11.15;3.30;;;5.30;99.90;;;;;;5071424;28;20079;-84
2023/01/11 01:09:36;;;;;;;7.65;3.10;;;5.30;99.90;;;;;;5074717;28;20035;-84
2023/01/11 01:12:01;;;;;;;13.73;2.90;;;5.30;99.90;;;;;;5074341;28;20028;-84
2023/01/11 01:14:28;;;;;;;13.02;2.85;;;5.30;99.90;;;;;;5065389;28;20020;-84
2023/01/11 01:17:08;;;;;;;14.80;3.55;;;5.30;99.90;;;;;;5068013;28;20103;-84
2023/01/11 01:19:36;;;;;;;13.23;3.17;;;5.40;99.90;;;;;;5065828;28;20024;-84
2023/01/11 01:22:04;;;;;;;10.32;3.50;;;5.40;99.90;;;;;;5072948;28;20032;-84
2023/01/11 01:24:30;;;;;;;17.52;3.60;;;5.40;99.90;;;;;;5066844;28;20028;-86
2023/01/11 01:26:57;;;;;;;12.98;3.58;;;5.40;99.90;;;;;;5071677;28;20040;-87
2023/01/11 01:29:23;;;;;;;19.50;4.18;;;5.40;99.90;;;;;;5072215;28;20040;-86
2023/01/11 01:31:49;;;;;;;17.60;4.40;;;5.40;99.90;;;;;;5073405;28;20070;-85
2023/01/11 01:34:15;;;;;;;10.43;3.58;;;5.40;99.90;;;;;;5072234;28;20032;-85
2023/01/11 01:36:40;;;;;;;22.25;4.22;;;5.50;99.90;;;;;;5072184;28;20017;-88
2023/01/11 01:39:07;;;;;;;14.23;3.65;;;5.50;99.90;;;;;;5072338;28;20040;-85
2023/01/11 01:41:33;;;;;;;20.98;3.75;;;5.50;99.90;;;;;;5075391;28;20027;-84
2023/01/11 01:44:01;;;;;;;17.92;3.60;;;5.50;99.90;;;;;;5070204;28;20485;-84
2023/01/11 01:46:30;;;;;;;19.08;3.85;;;5.50;99.90;;;;;;5067415;28;20021;-85
2023/01/11 01:49:12;;;;;;;17.35;4.05;;;5.50;99.90;;;;;;5059635;28;20025;-85
2023/01/11 01:51:47;;;;;;;17.65;4.47;;;5.50;99.90;;;;;;5070961;28;20475;-84
2023/01/11 01:54:19;;;;;;;12.88;3.80;;;5.50;99.90;;;;;;5076577;28;20060;-86
2023/01/11 01:56:49;;;;;;;17.83;3.70;;;5.50;99.90;;;;;;5070085;28;20464;-88
2023/01/11 01:59:17;;;;;;;8.68;3.72;;;5.40;99.90;;;;;;5071588;28;20037;-84
2023/01/11 02:01:47;;;;;;;9.68;4.18;;;5.50;99.90;;;;;;5071296;28;20040;-84
2023/01/11 02:04:32;;;;;;;14.93;5.00;;;5.50;99.90;;;;;;5076179;28;20028;-85
2023/01/11 02:07:03;;;;;;;15.52;3.35;;;5.50;99.90;;;;;;5071629;28;20123;-86
2023/01/11 02:09:43;;;;;;;17.02;3.38;;;5.50;99.90;;;;;;5071519;28;20059;-84
2023/01/11 02:12:08;;;;;;;14.07;3.15;;;5.50;99.90;;;;;;5065184;28;20052;-85
2023/01/11 02:14:37;;;;;;;16.25;3.35;;;5.50;99.90;;;;;;5073837;28;20473;-85
2023/01/11 02:17:02;;;;;;;6.28;2.85;;;5.60;99.90;;;;;;5069487;28;20558;-85
2023/01/11 02:19:49;;;;;;;11.98;4.70;;;5.70;99.90;;;;;;5071153;28;20032;-85
2023/01/11 02:22:35;;;;;;;13.18;3.38;;;5.60;99.90;;;;;;5072619;28;20032;-85
2023/01/11 02:25:13;;;;;;;8.05;2.92;;;5.60;99.90;;;;;;5068460;28;20029;-84
2023/01/11 02:28:07;;;;;;;9.93;3.60;;;5.70;99.90;;;;;;5070909;28;20131;-85
2023/01/11 02:30:41;;;;;;;11.77;3.13;;;5.70;99.90;;;;;;5067088;28;20544;-84
2023/01/11 02:33:48;;;;;;;8.70;2.90;;;5.70;99.90;;;;;;5072430;28;20392;-85
2023/01/11 02:36:31;;;;;;;13.67;2.90;;;5.70;99.90;;;;;;5071519;28;20020;-86
2023/01/11 02:39:22;;;;;;;6.55;2.60;;;5.80;99.90;;;;;;5071441;28;20059;-87
2023/01/11 02:45:02;;;;;;;7.45;3.05;;;5.80;99.90;;;;;;5069557;28;20036;-85
2023/01/11 02:47:34;;;;;;;5.50;2.55;;;5.70;99.90;;;;;;5071039;28;20047;-85
2023/01/11 02:50:08;;;;;;;11.00;2.92;;;5.70;99.90;;;;;;5069407;28;20041;-84
2023/01/11 02:52:52;;;;;;;9.80;3.60;;;5.70;99.90;;;;;;5071219;28;20140;-87
2023/01/11 02:55:24;;;;;;;12.88;3.15;;;5.70;99.90;;;;;;5072381;28;20024;-86
2023/01/11 02:57:53;;;;;;;14.75;3.15;;;5.70;99.90;;;;;;5069708;28;20024;-84
2023/01/11 03:00:19;;;;;;;9.13;2.83;;;5.70;99.90;;;;;;5069904;28;20394;-86
2023/01/11 03:02:45;;;;;;;9.23;3.08;;;5.80;99.90;;;;;;5069087;28;20052;-86
2023/01/11 03:05:13;;;;;;;9.60;2.63;;;5.80;99.90;;;;;;5068906;28;20464;-84
2023/01/11 03:08:17;;;;;;;16.10;3.25;;;5.70;99.90;;;;;;5066131;28;20098;-84
2023/01/11 03:11:01;;;;;;;9.95;3.28;;;5.70;99.90;;;;;;5006697;28;20049;-86
2023/01/11 03:13:39;;;;;;;16.15;3.38;;;5.70;99.90;;;;;;5065878;28;20036;-84
2023/01/11 03:16:29;;;;;;;15.95;2.85;;;5.70;99.90;;;;;;5063994;28;20086;-83
2023/01/11 03:19:18;;;;;;;8.90;2.67;;;5.80;99.90;;;;;;5072319;28;20024;-83
2023/01/11 03:21:56;;;;;;;11.32;2.50;;;5.70;99.90;;;;;;5072753;28;20174;-83
2023/01/11 03:24:46;;;;;;;8.43;2.80;;;5.80;99.90;;;;;;5067374;28;20056;-83
2023/01/11 03:28:13;;;;;;;11.70;2.97;;;5.80;99.90;;;;;;5065532;28;20394;-88
2023/01/11 03:31:13;;;;;;;11.03;2.60;;;5.80;99.90;;;;;;5031594;28;20432;-84
2023/01/11 03:33:42;;;;;;;8.93;2.17;;;5.80;99.90;;;;;;5063078;28;20119;-83
2023/01/11 03:36:13;;;;;;;12.95;3.67;;;5.90;99.90;;;;;;5065451;28;20082;-83
2023/01/11 03:38:54;;;;;;;5.75;2.47;;;5.90;99.90;;;;;;5073311;28;20036;-82
2023/01/11 03:41:27;;;;;;;12.15;3.85;;;5.90;99.90;;;;;;5068676;28;20016;-83
2023/01/11 03:43:55;;;;;;;7.18;2.63;;;5.90;99.90;;;;;;5066455;28;20389;-84
2023/01/11 03:46:29;;;;;;;10.38;2.92;;;5.90;99.90;;;;;;5066148;28;20027;-83
2023/01/11 03:49:03;;;;;;;8.73;2.40;;;6.00;99.90;;;;;;5069578;28;20039;-84
2023/01/11 03:51:33;;;;;;;9.48;2.97;;;6.10;99.90;;;;;;5067379;28;20370;-83
2023/01/11 03:54:03;;;;;;;9.93;2.65;;;6.10;99.90;;;;;;5055603;28;20025;-84
2023/01/11 03:56:39;;;;;;;12.57;2.63;;;6.10;99.90;;;;;;5072768;28;20662;-83
2023/01/11 03:59:05;;;;;;;5.75;2.42;;;6.20;99.90;;;;;;5064488;28;20546;-84
2023/01/11 04:01:31;;;;;;;13.50;3.10;;;6.10;99.90;;;;;;5066970;28;20024;-83
2023/01/11 04:03:56;;;;;;;11.48;2.70;;;6.20;99.90;;;;;;5068293;28;20470;-83
2023/01/11 04:06:22;;;;;;;8.35;2.92;;;6.20;99.90;;;;;;5069896;28;20107;-83
2023/01/11 04:08:48;;;;;;;6.75;2.90;;;6.20;99.90;;;;;;5066488;28;20024;-83
2023/01/11 04:11:13;;;;;;;10.20;2.20;;;6.10;99.90;;;;;;5071862;28;20043;-84
2023/01/11 04:13:39;;;;;;;7.45;2.63;;;6.10;99.90;;;;;;5073729;28;20489;-83
2023/01/11 04:16:05;;;;;;;8.18;2.60;;;6.10;99.90;;;;;;5069214;28;20029;-83
2023/01/11 04:18:30;;;;;;;9.77;2.55;;;6.10;99.90;;;;;;5066131;28;20032;-83
2023/01/11 04:20:56;;;;;;;10.43;3.10;;;6.10;99.90;;;;;;5065234;28;20095;-84
2023/01/11 04:23:21;;;;;;;9.57;2.65;;;6.10;99.90;;;;;;5069062;28;20020;-87
2023/01/11 04:25:47;;;;;;;7.47;2.53;;;6.20;99.90;;;;;;5065891;28;20082;-83
2023/01/11 04:28:14;;;;;;;13.60;2.78;;;6.30;99.90;;;;;;5067579;28;20424;-83
2023/01/11 04:30:39;;;;;;;10.23;2.42;;;6.30;99.90;;;;;;5069414;28;20070;-84
2023/01/11 04:33:05;;;;;;;8.00;2.70;;;6.30;99.90;;;;;;5067613;28;20088;-83
2023/01/11 04:35:30;;;;;;;7.63;2.63;;;6.30;99.90;;;;;;5067237;28;20575;-83
2023/01/11 04:37:56;;;;;;;7.13;2.28;;;6.30;99.90;;;;;;5062843;28;20055;-83
2023/01/11 04:40:23;;;;;;;9.98;2.67;;;6.30;99.90;;;;;;5066350;28;20055;-83
2023/01/11 04:42:49;;;;;;;6.75;2.53;;;6.30;99.90;;;;;;5067334;28;20491;-86
2023/01/11 04:45:15;;;;;;;8.60;2.58;;;6.30;99.90;;;;;;5064917;28;20033;-83
2023/01/11 04:47:40;;;;;;;7.75;2.63;;;6.40;99.90;;;;;;5059000;28;20032;-83
2023/01/11 04:50:07;;;;;;;4.55;2.17;;;6.40;99.90;;;;;;5065069;28;20469;-83
2023/01/11 04:52:33;;;;;;;6.43;2.50;;;6.40;99.90;;;;;;5062944;28;20040;-85
2023/01/11 04:54:58;;;;;;;12.60;2.92;;;6.40;99.90;;;;;;5067285;28;20577;-84
2023/01/11 04:57:25;;;;;;;7.35;2.60;;;6.40;99.90;;;;;;5066841;28;20054;-85
2023/01/11 04:59:51;;;;;;;4.93;2.45;;;6.40;99.90;;;;;;5065373;28;20033;-85
2023/01/11 05:02:17;;;;;;;5.47;2.53;;;6.50;99.90;;;;;;5070917;28;20032;-85
2023/01/11 05:04:43;;;;;;;7.40;3.17;;;6.40;99.90;;;;;;5070441;28;20033;-85
2023/01/11 05:07:09;;;;;;;18.27;3.38;;;6.50;99.90;;;;;;5065661;28;20044;-86
2023/01/11 05:09:35;;;;;;;12.48;3.22;;;6.60;99.90;;;;;;5074666;28;20477;-84
2023/01/11 05:12:01;;;;;;;5.95;2.25;;;6.60;99.90;;;;;;5081562;28;20039;-86
2023/01/11 05:14:26;;;;;;;6.43;3.05;;;6.60;99.90;;;;;;5069634;28;20534;-87
2023/01/11 05:16:52;;;;;;;5.07;2.40;;;6.60;99.90;;;;;;5068838;28;20090;-88
2023/01/11 05:19:17;;;;;;;8.85;3.03;;;6.70;99.90;;;;;;5069123;28;20022;-87
2023/01/11 05:21:43;;;;;;;5.60;2.97;;;6.80;99.90;;;;;;5069651;28;20098;-85
2023/01/11 05:24:14;;;;;;;6.53;2.78;;;6.80;99.90;;;;;;5062672;28;20064;-84
2023/01/11 05:26:41;;;;;;;7.78;2.45;;;6.80;99.90;;;;;;5068191;28;20039;-86
2023/01/11 05:29:09;;;;;;;6.63;2.38;;;6.80;99.90;;;;;;5070250;28;20568;-84
2023/01/11 05:31:36;;;;;;;6.97;2.70;;;6.80;99.90;;;;;;5063383;28;20098;-83
2023/01/11 05:34:02;;;;;;;6.15;2.83;;;6.90;99.90;;;;;;5072322;28;20111;-87
2023/01/11 05:36:28;;;;;;;9.32;4.25;;;6.80;99.90;;;;;;5068239;28;20107;-85
2023/01/11 05:38:55;;;;;;;7.13;2.65;;;6.90;99.90;;;;;;5069830;28;20481;-87
2023/01/11 05:41:23;;;;;;;14.98;2.58;;;6.90;99.90;;;;;;5067158;28;20119;-86
2023/01/11 05:46:37;;;;;;;5.63;2.55;;;7.00;99.90;;;;;;5068523;28;20438;-84
2023/01/11 05:49:04;;;;;;;248.75;15.52;;;7.00;99.90;;;;;;5063541;28;20060;-85
2023/01/11 05:51:31;;;;;;;4.10;2.28;;;7.10;99.90;;;;;;5061857;28;20041;-84
2023/01/11 05:53:57;;;;;;;13.35;2.60;;;7.10;99.90;;;;;;5074026;28;20029;-86
2023/01/11 05:56:23;;;;;;;6.00;2.63;;;7.10;99.90;;;;;;5066983;28;20078;-86
2023/01/11 05:58:50;;;;;;;9.27;2.55;;;7.10;99.90;;;;;;5070382;28;20028;-85
2023/01/11 06:01:18;;;;;;;6.53;2.60;;;7.20;99.90;;;;;;5067685;28;20024;-85
2023/01/11 06:03:44;;;;;;;4.45;2.22;;;7.20;99.90;;;;;;5068892;28;20020;-84
2023/01/11 06:06:10;;;;;;;6.30;2.38;;;7.20;99.90;;;;;;5056422;28;20417;-83
2023/01/11 06:08:36;;;;;;;4.22;2.22;;;7.20;99.90;;;;;;5066753;28;20027;-86
2023/01/11 06:11:01;;;;;;;3.45;1.63;;;7.30;99.90;;;;;;5075408;28;20082;-85
2023/01/11 06:13:27;;;;;;;3.13;1.98;;;7.30;99.90;;;;;;5068797;28;20030;-85
2023/01/11 06:16:06;;;;;;;6.63;2.20;;;7.40;99.90;;;;;;5069861;28;20614;-84
2023/01/11 06:18:37;;;;;;;4.78;1.75;;;7.40;99.90;;;;;;5070094;28;20028;-86
2023/01/11 06:21:03;;;;;;;4.53;1.80;;;7.40;99.90;;;;;;5068611;28;20028;-86
2023/01/11 06:23:33;;;;;;;2.45;1.40;;;7.40;99.90;;;;;;5067308;28;20062;-85
2023/01/11 06:26:05;;;;;;;4.15;2.10;;;7.40;99.90;;;;;;5068038;28;20036;-87
2023/01/11 06:28:30;;;;;;;3.80;1.98;;;7.40;99.90;;;;;;5068009;28;20493;-87
2023/01/11 06:31:00;;;;;;;3.83;1.98;;;7.40;99.90;;;;;;5073349;28;20040;-84
2023/01/11 06:33:27;;;;;;;6.20;3.08;;;7.40;99.90;;;;;;5070596;28;20140;-86
2023/01/11 06:35:52;;;;;;;3.85;2.10;;;7.40;99.90;;;;;;5069254;28;20029;-85
2023/01/11 06:38:20;;;;;;;6.03;2.10;;;7.40;99.90;;;;;;5069091;28;20477;-84
2023/01/11 06:41:00;;;;;;;5.75;1.77;;;7.40;99.90;;;;;;5063800;28;20043;-86
2023/01/11 06:43:27;;;;;;;5.53;1.92;;;7.40;99.90;;;;;;5064553;28;20020;-84
2023/01/11 06:45:53;;;;;;;3.95;2.10;;;7.30;99.90;;;;;;5069888;28;20563;-87
2023/01/11 06:48:22;;;;;;;6.80;2.00;;;7.30;99.90;;;;;;5070558;28;20051;-86
2023/01/11 06:50:49;;;;;;;3.90;1.92;;;7.30;99.90;;;;;;5070336;28;20040;-85
2023/01/11 06:53:15;;;;;;;3.40;2.00;;;7.20;99.90;;;;;;5070801;28;20031;-85
2023/01/11 06:55:41;;;;;;;4.10;2.00;;;7.20;99.90;;;;;;5072419;28;20143;-88
2023/01/11 06:58:09;;;;;;;2.75;1.83;;;7.20;99.90;;;;;;5079991;28;20487;-84
2023/01/11 07:00:35;;;;;;;4.13;1.75;;;7.10;99.90;;;;;;5068332;28;20024;-85
2023/01/11 07:03:05;;;;;;;5.43;1.70;;;7.10;99.90;;;;;;5073421;28;20032;-86
2023/01/11 07:05:35;;;;;;;3.65;1.60;;;7.10;99.90;;;;;;5068745;28;20025;-84
2023/01/11 07:08:01;;;;;;;5.00;2.40;;;7.10;99.90;;;;;;5071261;28;20025;-85
2023/01/11 07:10:27;;;;;;;3.67;1.55;;;7.10;99.90;;;;;;5066366;28;20041;-84
2023/01/11 07:12:53;;;;;;;3.00;1.60;;;7.10;99.90;;;;;;5068696;28;20127;-84
2023/01/11 07:15:18;;;;;;;2.75;1.50;;;7.10;99.90;;;;;;5069453;28;20115;-84
2023/01/11 07:17:46;;;;;;;3.03;1.83;;;7.10;99.90;;;;;;5060811;28;20036;-84
2023/01/11 07:20:12;;;;;;;2.05;1.63;;;7.00;99.90;;;;;;5073992;28;20108;-84
2023/01/11 07:22:38;;;;;;;4.00;1.90;;;7.00;99.90;;;;;;5076341;28;20026;-84
2023/01/11 07:25:04;;;;;;;3.17;1.70;;;7.00;99.90;;;;;;5072941;28;20464;-84
2023/01/11 07:27:30;;;;;;;5.88;1.63;;;7.00;99.90;;;;;;5067702;28;20054;-82
2023/01/11 07:29:58;;;;;;;5.47;1.40;;;7.00;99.90;;;;;;5070203;28;20439;-83
2023/01/11 07:32:25;;;;;;;5.13;1.45;;;7.00;99.90;;;;;;5067874;28;20506;-83
2023/01/11 07:34:51;;;;;;;2.33;1.40;;;7.00;99.90;;;;;;5067887;28;20133;-85
2023/01/11 07:37:16;;;;;;;2.13;1.33;;;7.00;99.90;;;;;;5070283;28;20021;-84
2023/01/11 07:39:42;;;;;;;1.10;1.10;;;7.00;99.90;;;;;;5074140;28;20543;-85
2023/01/11 07:44:56;;;;;;;1.05;1.00;;;7.20;99.90;;;;;;5060063;28;20034;-85
2023/01/11 07:47:22;;;;;;;1.38;1.27;;;7.30;99.90;;;;;;5062842;28;20020;-87
2023/01/11 07:49:48;;;;;;;1.80;1.40;;;7.30;99.90;;;;;;5060679;28;20398;-85
2023/01/11 07:52:13;;;;;;;1.52;1.15;;;7.40;99.90;;;;;;5061004;28;20028;-85
2023/01/11 07:54:39;;;;;;;4.50;1.25;;;7.40;99.90;;;;;;5066999;28;20522;-85
2023/01/11 07:57:04;;;;;;;1.20;1.10;;;7.40;99.90;;;;;;5067811;28;20573;-86
2023/01/11 07:59:30;;;;;;;3.85;1.33;;;7.40;99.90;;;;;;5070041;28;20028;-89
2023/01/11 08:01:56;;;;;;;2.53;1.27;;;7.40;99.90;;;;;;5071104;28;20066;-86
2023/01/11 08:04:22;;;;;;;1.88;1.30;;;7.50;99.90;;;;;;5071190;28;20437;-86
2023/01/11 08:06:47;;;;;;;1.10;0.90;;;7.50;99.90;;;;;;5073354;28;20054;-86
2023/01/11 08:09:13;;;;;;;2.50;1.20;;;7.50;99.90;;;;;;5070842;28;20163;-86
2023/01/11 08:14:39;;;;;;;1.90;1.30;;;7.50;99.90;;;;;;5069826;28;20047;-84
2023/01/11 08:17:06;;;;;;;4.80;1.40;;;7.60;99.90;;;;;;5067469;28;20384;-86
2023/01/11 08:19:31;;;;;;;1.10;1.10;;;7.60;99.90;;;;;;5070478;28;20036;-88
2023/01/11 08:21:57;;;;;;;1.42;1.00;;;7.60;99.90;;;;;;5077660;28;20032;-83
2023/01/11 08:24:22;;;;;;;1.02;1.02;;;7.60;99.90;;;;;;5064295;28;20052;-84
2023/01/11 08:26:48;;;;;;;1.75;1.17;;;7.60;99.90;;;;;;5051678;28;20028;-85
2023/01/11 08:29:14;;;;;;;1.05;1.05;;;7.70;99.90;;;;;;5064963;28;20028;-86
2023/01/11 08:31:43;;;;;;;1.30;1.20;;;7.70;99.90;;;;;;5063455;28;20037;-85
2023/01/11 08:34:09;;;;;;;1.65;1.33;;;7.70;99.90;;;;;;5074782;28;20092;-86
2023/01/11 08:36:35;;;;;;;2.80;1.27;;;7.70;99.90;;;;;;5065491;28;20016;-86
2023/01/11 08:39:00;;;;;;;3.22;1.48;;;7.70;99.90;;;;;;5071865;28;20065;-84
2023/01/11 08:41:26;;;;;;;1.63;1.52;;;7.70;99.90;;;;;;5070883;28;20028;-88
2023/01/11 08:43:52;;;;;;;1.95;1.67;;;7.70;99.90;;;;;;5070154;28;20515;-84
2023/01/11 08:46:18;;;;;;;2.72;1.55;;;7.80;99.90;;;;;;5071015;28;20029;-87
2023/01/11 08:48:45;;;;;;;3.67;1.70;;;7.70;99.90;;;;;;5070816;28;20111;-85
2023/01/11 08:51:12;;;;;;;3.55;1.75;;;7.80;99.90;;;;;;5069358;28;20519;-85
2023/01/11 08:53:38;;;;;;;2.53;1.70;;;7.70;99.90;;;;;;5069164;28;20071;-84
2023/01/11 08:56:04;;;;;;;5.28;2.08;;;7.80;99.90;;;;;;5078022;28;20032;-87
2023/01/11 08:58:30;;;;;;;2.58;2.10;;;7.80;99.90;;;;;;5072594;28;20352;-85
2023/01/11 09:01:01;;;;;;;2.45;1.92;;;7.80;99.90;;;;;;5070934;28;20036;-85
2023/01/11 09:03:28;;;;;;;4.80;1.85;;;7.90;99.90;;;;;;5068437;28;20032;-84
2023/01/11 09:05:55;;;;;;;1.45;1.35;;;7.90;99.90;;;;;;5069082;28;20025;-85
2023/01/11 09:08:25;;;;;;;3.63;1.80;;;7.90;99.90;;;;;;5070671;28;20503;-86
2023/01/11 09:10:51;;;;;;;2.90;1.77;;;7.90;99.90;;;;;;5068174;28;20556;-86
2023/01/11 09:13:17;;;;;;;2.05;1.70;;;8.00;99.90;;;;;;5069891;28;20111;-87
2023/01/11 09:15:45;;;;;;;3.95;2.00;;;8.00;99.90;;;;;;5072051;28;20120;-88
2023/01/11 09:18:13;;;;;;;2.53;2.28;;;8.00;99.90;;;;;;5071688;28;20048;-83
2023/01/11 09:20:42;;;;;;;5.03;2.47;;;8.10;99.90;;;;;;5069250;28;20521;-83
2023/01/11 09:23:07;;;;;;;4.50;2.88;;;8.10;99.90;;;;;;5061088;28;20028;-84
2023/01/11 09:25:33;;;;;;;6.60;4.20;;;8.10;99.90;;;;;;5066422;28;20081;-87
2023/01/11 09:27:58;;;;;;;8.65;4.30;;;8.20;99.90;;;;;;5074063;28;20044;-87
2023/01/11 09:30:24;;;;;;;8.60;4.20;;;8.20;99.90;;;;;;5074397;28;20040;-85
2023/01/11 09:32:53;;;;;;;7.50;4.53;;;8.20;99.90;;;;;;5077642;28;20028;-84
2023/01/11 09:35:18;;;;;;;3.63;2.58;;;8.20;99.90;;;;;;5076270;28;20392;-86
2023/01/11 09:37:48;;;;;;;6.72;3.42;;;8.20;99.90;;;;;;5077309;28;20032;-84
2023/01/11 09:40:20;;;;;;;3.78;2.65;;;8.30;99.90;;;;;;5073991;28;20119;-84
2023/01/11 09:42:51;;;;;;;3.40;2.42;;;8.30;99.90;;;;;;5065365;28;20032;-83
2023/01/11 09:45:19;;;;;;;4.22;2.53;;;8.30;99.90;;;;;;5076032;28;20035;-87
2023/01/11 09:47:52;;;;;;;4.55;3.25;;;8.30;99.90;;;;;;5068351;28;20032;-86
2023/01/11 09:50:22;;;;;;;4.28;3.10;;;8.40;99.90;;;;;;5086716;28;20056;-87
2023/01/11 09:52:55;;;;;;;6.65;4.32;;;8.40;99.90;;;;;;5074680;28;20391;-84
2023/01/11 09:55:31;;;;;;;11.60;5.47;;;8.40;99.90;;;;;;5069484;28;20024;-85
2023/01/11 09:58:13;;;;;;;18.33;6.93;;;8.40;99.90;;;;;;5070749;28;20056;-86
2023/01/11 10:00:47;;;;;;;15.60;7.85;;;8.40;99.90;;;;;;5067984;28;20024;-85
2023/01/11 10:03:38;;;;;;;10.75;6.38;;;8.40;99.90;;;;;;5080593;28;20043;-84
2023/01/11 10:06:09;;;;;;;6.72;4.55;;;8.50;99.90;;;;;;5069643;28;20028;-86
2023/01/11 10:08:50;;;;;;;8.85;3.20;;;8.50;99.90;;;;;;5074245;28;20485;-84
2023/01/11 10:11:41;;;;;;;3.67;2.95;;;8.50;99.90;;;;;;5067176;28;20484;-83
2023/01/11 10:14:17;;;;;;;3.20;2.20;;;8.50;99.90;;;;;;5068584;28;20032;-88
2023/01/11 10:16:55;;;;;;;2.30;2.10;;;8.50;99.90;;;;;;5069504;28;20036;-88
2023/01/11 10:19:46;;;;;;;3.28;1.88;;;8.60;99.90;;;;;;5075018;28;20031;-83
2023/01/11 10:22:23;;;;;;;1.60;1.50;;;8.60;99.90;;;;;;5074815;28;20039;-84
2023/01/11 10:25:00;;;;;;;1.10;1.05;;;8.60;99.90;;;;;;5075145;28;20056;-86
2023/01/11 10:27:32;;;;;;;2.30;1.73;;;8.60;99.90;;;;;;5071495;28;20055;-84
2023/01/11 10:30:22;;;;;;;1.38;1.00;;;8.60;99.90;;;;;;5063460;28;20484;-85
2023/01/11 10:33:00;;;;;;;2.28;0.80;;;8.60;99.90;;;;;;5073918;28;20036;-85
2023/01/11 10:39:14;;;;;;;5.20;0.70;;;8.60;99.90;;;;;;5076289;28;20534;-85
2023/01/11 10:41:53;;;;;;;2.38;1.30;;;8.60;99.90;;;;;;5065660;28;20028;-85
2023/01/11 10:44:35;;;;;;;0.85;0.60;;;8.70;99.90;;;;;;5069876;28;20419;-84
2023/01/11 10:47:02;;;;;;;0.70;0.70;;;8.70;99.90;;;;;;5073143;28;20043;-83
2023/01/11 10:49:58;;;;;;;0.70;0.70;;;8.70;99.90;;;;;;5076159;28;20036;-82
2023/01/11 10:52:40;;;;;;;1.08;1.00;;;8.70;99.90;;;;;;5063119;28;20408;-85
2023/01/11 10:55:15;;;;;;;1.42;0.80;;;8.80;99.90;;;;;;5068150;28;20032;-83
2023/01/11 10:57:46;;;;;;;3.63;0.75;;;8.70;99.90;;;;;;5073086;28;20116;-83
2023/01/11 11:00:31;;;;;;;2.05;1.00;;;8.80;99.90;;;;;;5071773;28;20493;-83
2023/01/11 11:03:24;;;;;;;0.70;0.70;;;8.70;99.90;;;;;;5070482;28;20032;-85
2023/01/11 11:05:59;;;;;;;1.52;0.60;;;8.80;99.90;;;;;;5067298;28;20037;-83
2023/01/11 11:08:43;;;;;;;1.10;0.88;;;8.90;99.90;;;;;;5068498;28;20481;-90
2023/01/11 11:11:20;;;;;;;0.98;0.50;;;8.90;99.90;;;;;;5068043;28;20040;-86
2023/01/11 11:14:17;;;;;;;0.75;0.75;;;8.90;99.90;;;;;;5071625;28;20504;-84
2023/01/11 11:16:48;;;;;;;0.73;0.70;;;8.80;99.90;;;;;;5066585;28;20051;-83
2023/01/11 11:19:18;;;;;;;1.08;0.60;;;8.90;99.90;;;;;;5071426;28;20108;-84
2023/01/11 11:21:45;;;;;;;1.10;1.00;;;8.90;99.90;;;;;;5069774;28;20040;-85
2023/01/11 11:24:24;;;;;;;1.33;1.13;;;8.90;99.90;;;;;;5071570;28;20434;-87
2023/01/11 11:27:06;;;;;;;1.95;1.08;;;9.00;99.90;;;;;;5068928;28;20036;-84
2023/01/11 11:29:40;;;;;;;1.23;0.77;;;9.00;99.90;;;;;;5067439;28;20054;-86
2023/01/11 11:32:19;;;;;;;0.70;0.70;;;9.00;99.90;;;;;;5069923;28;20113;-85
2023/01/11 11:34:49;;;;;;;0.50;0.50;;;9.00;99.90;;;;;;5063349;28;20029;-84
2023/01/11 11:37:38;;;;;;;0.60;0.60;;;9.00;99.90;;;;;;5071210;28;20078;-85
2023/01/11 11:40:04;;;;;;;1.38;1.02;;;9.00;99.90;;;;;;5070871;28;20033;-84
2023/01/11 11:42:30;;;;;;;0.75;0.75;;;9.00;99.90;;;;;;5071309;28;20039;-83
2023/01/11 11:45:08;;;;;;;1.20;1.00;;;9.00;99.90;;;;;;5071111;28;20092;-83
2023/01/11 11:47:33;;;;;;;2.30;1.20;;;9.00;99.90;;;;;;5071288;28;20029;-84
2023/01/11 11:50:17;;;;;;;4.32;1.48;;;9.00;99.90;;;;;;5068976;28;20078;-84
2023/01/11 11:52:48;;;;;;;0.60;0.60;;;9.00;99.90;;;;;;5069678;28;20020;-84
2023/01/11 11:55:14;;;;;;;0.52;0.52;;;9.00;99.90;;;;;;5068980;28;20052;-85
2023/01/11 11:57:42;;;;;;;2.50;0.68;;;9.00;99.90;;;;;;5067981;28;20119;-83
2023/01/11 12:00:26;;;;;;;0.50;0.50;;;9.00;99.90;;;;;;5064209;28;20040;-86
2023/01/11 12:03:06;;;;;;;0.60;0.60;;;9.00;99.90;;;;;;5081803;28;20123;-83
2023/01/11 12:05:32;;;;;;;0.57;0.57;;;9.00;99.90;;;;;;5063316;28;20480;-85
2023/01/11 12:07:58;;;;;;;0.70;0.55;;;9.10;99.90;;;;;;5070380;28;20036;-84
2023/01/11 12:10:29;;;;;;;0.60;0.60;;;9.10;99.90;;;;;;5072392;28;20032;-83
2023/01/11 12:12:57;;;;;;;0.60;0.60;;;9.10;99.90;;;;;;5073048;28;20032;-84
2023/01/11 12:15:27;;;;;;;0.50;0.50;;;9.10;99.90;;;;;;5070456;28;20028;-82
2023/01/11 12:17:53;;;;;;;0.60;0.60;;;9.20;99.90;;;;;;5072094;28;20029;-82
2023/01/11 12:20:22;;;;;;;1.33;1.08;;;9.10;99.90;;;;;;5072103;28;20043;-84
2023/01/11 12:23:16;;;;;;;7.80;3.30;;;9.20;99.90;;;;;;5075177;28;20028;-83
2023/01/11 12:25:53;;;;;;;0.80;0.80;;;9.20;99.90;;;;;;5073027;28;20036;-84
2023/01/11 12:28:27;;;;;;;1.10;1.00;;;9.20;99.90;;;;;;5074373;28;20044;-83
2023/01/11 12:31:01;;;;;;;0.88;0.70;;;9.20;99.90;;;;;;5074412;28;20036;-82
2023/01/11 12:34:03;;;;;;;1.15;0.80;;;9.10;99.90;;;;;;5072522;28;20028;-84
2023/01/11 12:36:28;;;;;;;0.70;0.50;;;9.10;99.90;;;;;;5073680;28;20032;-85
2023/01/11 12:39:16;;;;;;;0.63;0.63;;;9.20;99.90;;;;;;5073440;28;20036;-86
2023/01/11 12:42:06;;;;;;;1.92;0.77;;;9.20;99.90;;;;;;5074240;28;20032;-84
2023/01/11 12:44:41;;;;;;;0.73;0.73;;;9.10;99.90;;;;;;5073436;28;20067;-86
2023/01/11 12:47:37;;;;;;;4.40;1.30;;;9.10;99.90;;;;;;5072581;28;20469;-83
2023/01/11 12:50:13;;;;;;;0.70;0.70;;;9.20;99.90;;;;;;5069203;28;20074;-83
2023/01/11 12:52:52;;;;;;;0.70;0.70;;;9.20;99.90;;;;;;5069039;28;20059;-84
2023/01/11 12:55:50;;;;;;;1.35;0.73;;;9.20;99.90;;;;;;5075449;28;20074;-86
2023/01/11 12:58:49;;;;;;;1.05;0.57;;;9.20;99.90;;;;;;5078432;28;20110;-83
2023/01/11 13:01:37;;;;;;;0.70;0.70;;;9.20;99.90;;;;;;5072111;28;20029;-86
2023/01/11 13:04:33;;;;;;;0.60;0.60;;;9.20;99.90;;;;;;5066049;28;20035;-85
2023/01/11 13:07:18;;;;;;;;;;;9.20;99.90;;;;;;5063746;28;20028;-85
2023/01/11 13:10:11;;;;;;;0.70;0.70;;;9.20;99.90;;;;;;5069380;28;19912;-85
2023/01/11 13:13:18;;;;;;;1.83;0.70;;;9.20;99.90;;;;;;5070945;28;20369;-85
2023/01/11 13:15:56;;;;;;;4.18;0.80;;;9.30;99.90;;;;;;4997519;28;20038;-85
2023/01/11 13:18:32;;;;;;;0.90;0.65;;;9.20;99.90;;;;;;5059084;28;20036;-85
2023/01/11 13:21:19;;;;;;;2.22;0.80;;;9.30;99.90;;;;;;5069089;28;20088;-85
2023/01/11 13:23:52;;;;;;;0.85;0.70;;;9.30;99.90;;;;;;5078943;28;20377;-85
2023/01/11 13:26:25;;;;;;;0.88;0.80;;;9.30;99.90;;;;;;5071957;28;20551;-84
2023/01/11 13:28:59;;;;;;;0.68;0.65;;;9.30;99.90;;;;;;5074003;28;20082;-84
2023/01/11 13:31:25;;;;;;;1.00;0.90;;;9.40;99.90;;;;;;5071355;28;20079;-84
2023/01/11 13:33:58;;;;;;;0.80;0.80;;;9.30;99.90;;;;;;5069419;28;20021;-84
2023/01/11 13:36:31;;;;;;;1.30;1.20;;;9.40;99.90;;;;;;5071057;28;20032;-83
2023/01/11 13:39:22;;;;;;;1.60;0.80;;;9.40;99.90;;;;;;5072058;28;20024;-85
2023/01/11 13:41:53;;;;;;;0.80;0.80;;;9.40;99.90;;;;;;5073450;28;20078;-85